Latest Coastal Weather Observations for Ngayawili (Elcho Island)

IDD60701

Issued at 8:01 am CST Friday 27 March 2015 (issued every 10 minutes, with the page automatically refreshed every 10 minutes)

About coastal observations | Map of coastal stations | Coastal observations for NT | Marine services | Other Formats
Station Details ID: 014517 Name: NGAYAWILI Lat: -12.00 Lon: 135.57 Height: 8.1 m
Data from the previous 72 hours. | See also: Recent months at Ngayawili (Elcho Island)
Date/Time
CST
Temp

°C
Wind Pressure Rain
since 9am
mm
Weather Cloud Vis
km
Sea
Height
m
Swell
Dir
 
Speed
knots
Gust
knots
hPa Trend Height
m
Period
s
Dir
27/06:00am 24.5 SSE 4 5 1012.6 - 7.2 - - - - - - -
27/05:30am 24.6 SSE 5 6 1012.5 - 7.2 - - - - - - -
27/05:00am 24.5 SE 3 5 1012.6 - 7.2 - - - - - - -
27/04:30am 24.6 SE 4 5 1012.5 - 7.2 - - - - - - -
27/04:00am 24.6 SSE 4 5 1012.6 - 7.2 - - - - - - -
27/03:30am 24.9 SSE 4 5 1013.0 - 7.2 - - - - - - -
27/03:00am 24.9 SSE 5 6 1013.4 - 7.2 - - - - - - -
27/02:30am 24.9 CALM 0 0 1013.9 - 7.2 - - - - - - -
27/02:00am 25.0 CALM 0 0 1014.4 - 7.2 - - - - - - -
27/01:30am 25.6 WSW 4 5 1014.8 - 7.2 - - - - - - -
27/01:00am 25.7 WNW 5 6 1015.2 - 7.2 - - - - - - -
27/12:30am 25.4 W 5 6 1015.6 - 7.0 - - - - - - -
27/12:00am 24.8 CALM 0 0 1016.0 - 6.8 Rain - - - - - -
 
Date/Time
CST
Temp

°C
Wind Pressure Rain
since 9am
mm
Weather Cloud Vis
km
Sea
Height
m
Swell
Dir
 
Speed
knots
Gust
knots
hPa Trend Height
m
Period
s
Dir
26/11:30pm 24.3 CALM 0 0 1016.2 - 6.6 - - - - - - -
26/11:00pm 24.5 CALM 0 0 1016.3 - 6.6 - - - - - - -
26/10:30pm 24.4 CALM 0 0 1016.4 - 6.6 - - - - - - -
26/10:00pm 24.4 CALM 0 0 1016.1 - 6.4 - - - - - - -
26/09:30pm 24.3 SE 4 5 1015.5 - 6.4 - - - - - - -
26/09:00pm 24.4 E 5 7 1015.2 - 5.4 Rain - - - - - -
26/08:30pm 24.2 ENE 6 9 1015.4 - 4.0 - - - - - - -
26/08:00pm 24.9 ENE 7 11 1015.1 - 2.6 - - - - - - -
26/07:30pm 25.3 SE 7 11 1014.2 - 2.0 - - - - - - -
26/07:00pm 25.5 SE 7 10 1014.0 - 2.0 - - - - - - -
26/06:30pm 25.6 ESE 7 9 1013.2 - 2.0 - - - - - - -
26/06:00pm 26.0 SE 5 7 1013.3 - 2.0 Recent precip. - - - - - -
26/05:30pm 25.8 SSE 6 8 1012.8 - 2.0 - - - - - - -
26/05:00pm 24.8 SSE 8 12 1012.8 - 1.0 - - - - - - -
26/04:57pm 25.2 SE 9 13 1012.9 - 0.8 - - - - - - -
26/04:30pm 30.2 N 5 7 1011.9 - 0.8 - - - - - - -
26/04:00pm 30.2 N 6 8 1011.9 - 0.8 - - - - - - -
26/03:30pm 30.5 N 8 9 1011.6 - 0.8 - - - - - - -
26/03:00pm 30.6 N 6 7 1011.8 - 0.8 - - - - - - -
26/02:30pm 30.3 N 8 9 1012.1 - 0.8 - - - - - - -
26/02:00pm 30.0 WNW 5 6 1012.1 - 0.8 - - - - - - -
26/01:30pm 29.5 N 5 6 1012.7 - 0.8 - - - - - - -
26/01:00pm 29.1 NW 4 6 1013.1 - 0.8 - - - - - - -
26/12:30pm 28.8 WSW 5 6 1013.7 - 0.8 - - - - - - -
26/12:00pm 28.2 W 3 5 1014.2 - 0.6 - - - - - - -
26/11:30am 27.6 WSW 1 3 1014.3 - 0.6 - - - - - - -
26/11:00am 26.7 SSW 2 3 1014.4 - 0.6 - - - - - - -
26/10:30am 26.2 W 6 9 1015.0 - 0.4 - - - - - - -
26/10:00am 26.6 W 8 9 1015.2 - 0.2 - - - - - - -
26/09:30am 26.1 WSW 9 10 1015.0 - 0.2 - - - - - - -
26/09:00am 25.9 WNW 9 11 1015.1 - - Recent precip. - - - - - -
26/08:30am 25.9 WSW 2 5 1014.7 - - - - - - - - -
26/08:00am 25.3 NW 6 7 1014.5 - - - - - - - - -
26/07:30am 25.0 N 7 9 1014.1 - - - - - - - - -
26/07:00am 23.7 NE 5 6 1013.8 - - - - - - - - -
26/06:30am 23.7 NE 5 6 1013.3 - - - - - - - - -
26/06:00am 24.1 NNE 4 8 1013.7 - - Rain - - - - - -
26/05:30am 23.7 NNE 9 13 1013.4 - - - - - - - - -
26/05:00am 24.7 NNE 5 11 1012.6 - - - - - - - - -
26/04:30am 25.6 NE 7 12 1012.1 - - - - - - - - -
26/04:00am 25.8 ENE 6 11 1011.9 - - - - - - - - -
26/03:30am 26.3 E 5 8 1012.0 - - - - - - - - -
26/03:00am 26.4 E 6 9 1012.1 - 0.0 - - - - - - -
26/02:30am 26.5 E 5 7 1012.1 - - - - - - - - -
26/02:00am 26.7 ENE 5 8 1012.2 - - - - - - - - -
26/01:30am 26.9 ENE 6 9 1012.5 - - - - - - - - -
26/01:00am 27.4 NE 8 12 1012.9 - - - - - - - - -
26/12:30am 26.7 E 5 7 1012.8 - - - - - - - - -
26/12:00am 26.7 ENE 5 7 1013.1 - - - - - - - - -
 
Date/Time
CST
Temp

°C
Wind Pressure Rain
since 9am
mm
Weather Cloud Vis
km
Sea
Height
m
Swell
Dir
 
Speed
knots
Gust
knots
hPa Trend Height
m
Period
s
Dir
25/11:30pm 26.6 ENE 5 7 1013.2 - - - - - - - - -
25/11:00pm 26.7 ENE 5 7 1013.3 - - - - - - - - -
25/10:30pm 27.1 ENE 7 11 1013.4 - - - - - - - - -
25/10:00pm 27.8 ENE 5 7 1013.1 - - - - - - - - -
25/09:30pm 27.9 NE 5 8 1012.9 - - - - - - - - -
25/09:00pm 28.0 NE 6 7 1012.7 - 0.0 - - - - - - -
25/08:30pm 28.0 NE 7 11 1012.6 - - - - - - - - -
25/08:00pm 28.0 NE 6 10 1012.5 - - - - - - - - -
25/07:30pm 28.1 NE 8 11 1012.2 - - - - - - - - -
25/07:00pm 28.1 NNE 8 13 1011.7 - - - - - - - - -
25/06:30pm 28.3 NNE 9 12 1011.1 - - - - - - - - -
25/06:00pm 29.0 NNE 11 15 1010.6 - - - - - - - - -
25/05:30pm 29.6 NNE 13 16 1010.2 - - - - - - - - -
25/05:00pm 29.6 NNE 13 16 1010.1 - - - - - - - - -
25/04:30pm 29.7 NNE 13 15 1010.1 - - - - - - - - -
25/04:00pm 29.6 NNE 13 16 1010.1 - - - - - - - - -
25/03:30pm 29.7 NNE 13 18 1010.0 - - - - - - - - -
25/03:00pm 30.0 NNE 13 16 1010.0 - - - - - - - - -
25/02:30pm 30.3 NNE 13 16 1010.0 - - - - - - - - -
25/02:00pm 30.3 NNE 13 16 1010.5 - - - - - - - - -
25/01:30pm 30.5 NNE 12 14 1010.9 - - - - - - - - -
25/01:00pm 30.5 NNE 12 15 1011.3 - - - - - - - - -
25/12:30pm 30.0 NNE 11 14 1011.6 - - - - - - - - -
25/12:00pm 30.0 NNE 11 16 1011.9 - - - - - - - - -
25/11:30am 30.2 NE 10 15 1012.1 - - - - - - - - -
25/02:30am 25.8 ENE 5 6 1010.1 - - - - - - - - -
25/02:00am 25.3 ENE 4 5 1010.1 - - - - - - - - -
25/01:30am 25.4 NE 5 6 1010.2 - - - - - - - - -
25/01:00am 25.5 NE 6 7 1010.7 - - - - - - - - -
25/12:30am 25.6 NE 5 6 1010.8 - - - - - - - - -
25/12:00am 26.2 NNE 10 15 1011.1 - - - - - - - - -
 
Date/Time
CST
Temp

°C
Wind Pressure Rain
since 9am
mm
Weather Cloud Vis
km
Sea
Height
m
Swell
Dir
 
Speed
knots
Gust
knots
hPa Trend Height
m
Period
s
Dir
24/11:30pm 26.1 NNE 11 15 1011.2 - - - - - - - - -
24/11:00pm 27.8 N 11 13 1011.3 - - - - - - - - -
24/10:30pm 28.0 N 8 11 1011.1 - - - - - - - - -
24/10:00pm 28.0 N 10 11 1011.2 - - - - - - - - -
24/09:30pm 28.0 N 12 15 1011.2 - - - - - - - - -
24/09:00pm 28.0 N 12 14 1010.7 - 0.6 - - - - - - -
24/08:30pm 27.8 N 11 14 1010.3 - - - - - - - - -
24/08:00pm 27.6 N 9 10 1009.9 - - - - - - - - -
24/07:30pm 27.3 N 12 14 1009.4 - - - - - - - - -
24/07:00pm 26.2 NNE 8 12 1009.0 - - - - - - - - -
24/06:30pm 27.7 N 11 14 1008.6 - - - - - - - - -
24/06:00pm 28.4 N 13 16 1008.4 - - - - - - - - -
24/05:30pm 28.5 N 14 18 1008.1 - - - - - - - - -
24/05:00pm 28.9 N 13 16 1007.8 - - - - - - - - -
24/04:30pm 28.2 N 14 18 1007.7 - - - - - - - - -
24/04:00pm 27.7 N 17 20 1007.3 - - - - - - - - -
24/03:30pm 27.3 N 16 22 1007.3 - - - - - - - - -
24/03:00pm 26.0 N 19 25 1007.6 - - Rain - - - - - -
24/02:33pm 25.4 N 18 32 1007.4 - - - - - - - - -
24/02:30pm 27.5 NNE 16 27 1007.1 - - - - - - - - -
24/02:00pm 29.2 N 16 18 1007.4 - - - - - - - - -

Other Formats:

Comma delimited format used in spreadsheet applications
http://www.bom.gov.au/fwo/IDD60701/IDD60701.95146.axf

JavaScript Object Notation format (JSON) in row-major order
http://www.bom.gov.au/fwo/IDD60701/IDD60701.95146.json